createdAt,value
2022-09-27T00:02:13.574Z,1278.83
2022-09-27T00:04:41.687Z,1284.65
2022-09-27T00:07:13.288Z,1280.05
2022-09-27T00:09:44.339Z,1281.65
2022-09-27T00:12:12.702Z,1281.32
2022-09-27T00:14:39.470Z,1279.63
2022-09-27T00:17:07.789Z,1276.40
2022-09-27T00:19:35.035Z,1276.75
2022-09-27T00:22:01.949Z,1281.20
2022-09-27T00:24:29.709Z,1279.35
2022-09-27T00:26:56.676Z,1277.22
2022-09-27T00:29:24.497Z,1275.47
2022-09-27T00:31:52.166Z,1278.93
2022-09-27T00:34:22.527Z,1276.68
2022-09-27T00:36:53.656Z,1281.78
2022-09-27T00:39:21.546Z,1275.47
2022-09-27T00:41:49.214Z,1274.45
2022-09-27T00:44:25.206Z,1273.63
2022-09-27T00:47:28.744Z,1275.13
2022-09-27T00:50:13.906Z,1281.63
2022-09-27T00:52:48.704Z,1275.85
2022-09-27T00:55:41.385Z,1274.28
2022-09-27T00:58:09.747Z,1273.53
2022-09-27T01:00:38.621Z,1277.63
2022-09-27T01:03:12.837Z,1275.20
2022-09-27T01:05:40.728Z,1275.00
2022-09-27T01:08:10.244Z,1278.45
2022-09-27T01:10:47.637Z,1277.65
2022-09-27T01:13:25.606Z,1281.13
2022-09-27T01:16:23.253Z,1277.70
2022-09-27T01:18:59.043Z,1282.40
2022-09-27T01:21:53.132Z,1276.00
2022-09-27T01:24:53.499Z,1283.60
2022-09-27T01:27:39.268Z,1283.87
2022-09-27T01:30:27.585Z,1277.18
2022-09-27T01:33:21.890Z,1282.67
2022-09-27T01:36:12.864Z,1273.93
2022-09-27T01:38:57.752Z,1275.00
2022-09-27T01:41:33.935Z,1279.07
2022-09-27T01:44:37.559Z,1278.40
2022-09-27T01:47:22.546Z,1280.85
2022-09-27T01:50:09.790Z,1280.97
2022-09-27T01:52:54.336Z,1283.97
2022-09-27T01:55:28.805Z,1278.07
2022-09-27T01:58:31.647Z,1281.90
2022-09-27T02:01:00.676Z,1279.93
2022-09-27T02:03:38.736Z,1278.03
2022-09-27T02:06:45.602Z,1278.80
2022-09-27T02:09:30.898Z,1279.70
2022-09-27T02:12:25.802Z,1279.10
2022-09-27T02:15:02.034Z,1275.32
2022-09-27T02:17:40.549Z,1272.15
2022-09-27T02:20:33.868Z,1275.32
2022-09-27T02:23:15.006Z,1276.82
2022-09-27T02:26:11.729Z,1280.50
2022-09-27T02:28:47.856Z,1282.80
2022-09-27T02:31:23.629Z,1277.40
2022-09-27T02:33:56.302Z,1277.15
2022-09-27T02:36:23.440Z,1277.20
2022-09-27T02:38:50.842Z,1276.15
2022-09-27T02:41:22.843Z,1279.82
2022-09-27T02:43:59.847Z,1275.93
2022-09-27T02:46:53.469Z,1278.45
2022-09-27T02:49:59.355Z,1277.72
2022-09-27T02:53:15.334Z,1275.78
2022-09-27T02:56:20.820Z,1272.85
2022-09-27T02:59:37.524Z,1280.18
2022-09-27T03:02:31.313Z,1278.07
2022-09-27T03:05:37.750Z,1274.85
2022-09-27T03:08:05.084Z,1275.55
2022-09-27T03:10:35.849Z,1277.22
2022-09-27T03:13:04.421Z,1276.50
2022-09-27T03:15:32.922Z,1273.65
2022-09-27T03:18:03.165Z,1276.05
2022-09-27T03:20:52.377Z,1275.50
2022-09-27T03:23:20.876Z,1275.35
2022-09-27T03:25:48.461Z,1271.82
2022-09-27T03:28:22.489Z,1277.65
2022-09-27T03:30:50.817Z,1280.80
2022-09-27T03:33:37.938Z,1276.07
2022-09-27T03:36:12.753Z,1273.18
2022-09-27T03:38:39.682Z,1277.68
2022-09-27T03:41:10.229Z,1268.75
2022-09-27T03:43:37.085Z,1271.07
2022-09-27T03:46:04.721Z,1272.13
2022-09-27T03:48:31.584Z,1269.93
2022-09-27T03:50:58.699Z,1271.00
2022-09-27T03:53:25.476Z,1273.25
2022-09-27T03:55:52.580Z,1272.50
2022-09-27T03:58:21.387Z,1270.40
2022-09-27T04:00:49.828Z,1280.70
2022-09-27T04:03:17.544Z,1274.65
2022-09-27T04:06:03.908Z,1284.20
2022-09-27T04:08:37.588Z,1279.82
2022-09-27T04:11:05.802Z,1274.23
2022-09-27T04:13:32.879Z,1276.32
2022-09-27T04:15:59.589Z,1269.83
2022-09-27T04:18:45.060Z,1275.68
2022-09-27T04:21:44.115Z,1283.28
2022-09-27T04:24:13.696Z,1269.82
2022-09-27T04:26:51.925Z,1268.10
2022-09-27T04:29:25.749Z,1267.82
2022-09-27T04:31:54.679Z,1274.28
2022-09-27T04:34:45.548Z,1276.05
2022-09-27T04:37:21.892Z,1271.45
2022-09-27T04:39:50.570Z,1271.07
2022-09-27T04:42:17.857Z,1276.45
2022-09-27T04:44:47.885Z,1276.47
2022-09-27T04:47:15.107Z,1274.07
2022-09-27T04:49:44.670Z,1275.80
2022-09-27T04:52:13.139Z,1273.07
2022-09-27T04:54:40.725Z,1277.38
2022-09-27T04:57:27.416Z,1276.38
2022-09-27T04:59:54.491Z,1269.20
2022-09-27T05:02:27.210Z,1279.25
2022-09-27T05:05:30.124Z,1282.07
2022-09-27T05:07:57.555Z,1274.80
2022-09-27T05:10:35.002Z,1278.05
2022-09-27T05:13:01.774Z,1273.93
2022-09-27T05:15:28.765Z,1271.47
2022-09-27T05:18:30.887Z,1271.88
2022-09-27T05:21:16.511Z,1268.05
2022-09-27T05:23:47.931Z,1268.90
2022-09-27T05:26:15.376Z,1266.50
2022-09-27T05:28:43.014Z,1269.33
2022-09-27T05:31:13.205Z,1266.68
2022-09-27T05:33:41.278Z,1267.32
2022-09-27T05:36:27.955Z,1276.22
2022-09-27T05:38:54.666Z,1270.90
2022-09-27T05:41:22.797Z,1275.45
2022-09-27T05:43:49.736Z,1271.45
2022-09-27T05:46:16.688Z,1269.95
2022-09-27T05:48:43.821Z,1267.72
2022-09-27T05:51:11.760Z,1271.97
2022-09-27T05:53:40.354Z,1269.70
2022-09-27T05:56:14.590Z,1269.85
2022-09-27T05:59:00.010Z,1269.15
2022-09-27T06:01:35.632Z,1278.15
2022-09-27T06:04:25.450Z,1271.35
2022-09-27T06:07:06.707Z,1276.05
2022-09-27T06:09:33.576Z,1277.03
2022-09-27T06:12:00.930Z,1277.68
2022-09-27T06:14:27.876Z,1270.07
2022-09-27T06:17:02.953Z,1271.05
2022-09-27T06:19:33.672Z,1273.07
2022-09-27T06:22:00.455Z,1271.65
2022-09-27T06:24:36.345Z,1273.38
2022-09-27T06:27:09.169Z,1274.43
2022-09-27T06:29:46.193Z,1270.68
2022-09-27T06:32:23.173Z,1270.90
2022-09-27T06:34:57.107Z,1269.38
2022-09-27T06:37:27.203Z,1273.05
2022-09-27T06:39:55.895Z,1271.38
2022-09-27T06:42:53.281Z,1273.38
2022-09-27T06:45:43.484Z,1275.15
2022-09-27T06:48:42.570Z,1287.55
2022-09-27T06:51:18.075Z,1274.20
2022-09-27T06:53:44.934Z,1270.38
2022-09-27T06:56:11.964Z,1273.68
2022-09-27T06:59:07.701Z,1275.78
2022-09-27T07:01:44.981Z,1271.68
2022-09-27T07:04:21.929Z,1273.22
2022-09-27T07:07:12.157Z,1276.00
2022-09-27T07:09:43.216Z,1269.88
2022-09-27T07:12:12.307Z,1276.45
2022-09-27T07:14:40.036Z,1271.10
2022-09-27T07:17:10.800Z,1274.30
2022-09-27T07:19:40.780Z,1272.20
2022-09-27T07:22:08.907Z,1274.97
2022-09-27T07:24:36.079Z,1272.07
2022-09-27T07:27:04.339Z,1270.53
2022-09-27T07:29:31.923Z,1270.10
2022-09-27T07:32:01.503Z,1270.77
2022-09-27T07:34:34.454Z,1276.60
2022-09-27T07:37:05.341Z,1273.43
2022-09-27T07:39:35.811Z,1269.40
2022-09-27T07:42:03.880Z,1274.77
2022-09-27T07:44:31.752Z,1272.50
2022-09-27T07:47:28.056Z,1271.93
2022-09-27T07:50:28.809Z,1270.60
2022-09-27T07:53:16.316Z,1271.95
2022-09-27T07:55:53.105Z,1270.43
2022-09-27T07:58:23.629Z,1273.20
2022-09-27T08:00:54.665Z,1277.65
2022-09-27T08:03:21.887Z,1270.35
2022-09-27T08:05:48.804Z,1274.53
2022-09-27T08:08:16.575Z,1274.88
2022-09-27T08:10:46.624Z,1273.32
2022-09-27T08:13:14.759Z,1275.55
2022-09-27T08:15:41.543Z,1275.22
2022-09-27T08:18:10.144Z,1273.75
2022-09-27T08:21:09.256Z,1278.03
2022-09-27T08:23:44.254Z,1278.57
2022-09-27T08:26:28.950Z,1274.13
2022-09-27T08:29:01.825Z,1276.10
2022-09-27T08:31:32.745Z,1272.97
2022-09-27T08:33:59.616Z,1273.82
2022-09-27T08:36:26.926Z,1279.60
2022-09-27T08:38:57.647Z,1273.10
2022-09-27T08:41:34.457Z,1280.85
2022-09-27T08:44:01.932Z,1280.70
2022-09-27T08:46:33.044Z,1279.85
2022-09-27T08:49:07.450Z,1278.50
2022-09-27T08:51:37.836Z,1277.18
2022-09-27T08:54:17.576Z,1279.07
2022-09-27T08:56:49.176Z,1274.15
2022-09-27T08:59:29.544Z,1273.07
2022-09-27T09:01:59.257Z,1273.13
2022-09-27T09:04:41.324Z,1272.72
2022-09-27T09:07:21.299Z,1273.45
2022-09-27T09:09:53.850Z,1274.00
2022-09-27T09:12:57.097Z,1277.18
2022-09-27T09:15:54.442Z,1272.05
2022-09-27T09:18:48.816Z,1282.30
2022-09-27T09:21:44.142Z,1275.20
2022-09-27T09:24:22.234Z,1276.03
2022-09-27T09:27:09.022Z,1273.43
2022-09-27T09:30:15.442Z,1276.50
2022-09-27T09:33:16.417Z,1274.45
2022-09-27T09:36:22.014Z,1276.05
2022-09-27T09:38:55.515Z,1274.63
2022-09-27T09:41:30.359Z,1277.53
2022-09-27T09:44:18.559Z,1275.05
2022-09-27T09:46:51.503Z,1272.00
2022-09-27T09:49:27.106Z,1275.30
2022-09-27T09:52:07.950Z,1278.50
2022-09-27T09:54:43.099Z,1273.22
2022-09-27T09:57:22.087Z,1277.80
2022-09-27T09:59:59.249Z,1284.00
2022-09-27T10:02:40.483Z,1272.90
2022-09-27T10:05:19.919Z,1274.65
2022-09-27T10:07:58.022Z,1278.63
2022-09-27T10:10:25.435Z,1280.70
2022-09-27T10:12:56.241Z,1282.10
2022-09-27T10:15:30.423Z,1275.13
2022-09-27T10:17:59.282Z,1281.15
2022-09-27T10:20:35.224Z,1274.85
2022-09-27T10:23:22.535Z,1277.20
2022-09-27T10:26:11.051Z,1275.33
2022-09-27T10:28:45.923Z,1270.88
2022-09-27T10:31:19.491Z,1276.22
2022-09-27T10:34:06.839Z,1276.43
2022-09-27T10:36:40.474Z,1275.70
2022-09-27T10:39:23.785Z,1271.38
2022-09-27T10:41:52.256Z,1274.15
2022-09-27T10:44:40.592Z,1275.32
2022-09-27T10:47:26.994Z,1277.22
2022-09-27T10:50:48.865Z,1272.15
2022-09-27T10:53:22.375Z,1276.53
2022-09-27T10:55:59.160Z,1279.55
2022-09-27T10:58:38.369Z,1276.18
2022-09-27T11:01:12.518Z,1275.20
2022-09-27T11:04:00.212Z,1277.27
2022-09-27T11:06:37.824Z,1277.30
2022-09-27T11:09:24.196Z,1284.18
2022-09-27T11:12:13.123Z,1276.93
2022-09-27T11:14:41.083Z,1279.20
2022-09-27T11:17:10.256Z,1283.15
2022-09-27T11:20:09.024Z,1280.15
2022-09-27T11:23:03.447Z,1274.75
2022-09-27T11:25:52.080Z,1279.80
2022-09-27T11:28:51.740Z,1280.28
2022-09-27T11:31:53.360Z,1283.75
2022-09-27T11:34:26.870Z,1278.47
2022-09-27T11:37:11.783Z,1276.40
2022-09-27T11:40:15.730Z,1280.78
2022-09-27T11:43:11.668Z,1270.43
2022-09-27T11:46:17.795Z,1273.37
2022-09-27T11:49:41.211Z,1269.55
2022-09-27T11:52:50.193Z,1276.72
2022-09-27T11:55:28.910Z,1272.65
2022-09-27T11:58:16.187Z,1272.20
2022-09-27T12:00:45.001Z,1274.23
2022-09-27T12:03:36.566Z,1272.55
2022-09-27T12:06:10.768Z,1276.90
2022-09-27T12:08:54.913Z,1271.88
2022-09-27T12:11:36.454Z,1270.83
2022-09-27T12:14:23.563Z,1273.07
2022-09-27T12:16:55.357Z,1276.27
2022-09-27T12:19:39.658Z,1277.35
2022-09-27T12:22:34.660Z,1275.70
2022-09-27T12:25:17.049Z,1277.53
2022-09-27T12:28:14.267Z,1276.57
2022-09-27T12:30:48.583Z,1275.82
2022-09-27T12:33:21.964Z,1277.28
2022-09-27T12:35:56.468Z,1272.32
2022-09-27T12:38:47.593Z,1276.28
2022-09-27T12:41:19.667Z,1270.43
2022-09-27T12:44:11.695Z,1268.57
2022-09-27T12:47:24.107Z,1261.13
2022-09-27T12:50:10.231Z,1262.60
2022-09-27T12:52:47.341Z,1243.95
2022-09-27T12:55:15.992Z,1257.28
2022-09-27T12:57:51.688Z,1253.05
2022-09-27T13:00:56.059Z,1243.65
2022-09-27T13:03:32.637Z,1237.13
2022-09-27T13:06:06.034Z,1251.50
2022-09-27T13:08:34.691Z,1248.75
2022-09-27T13:11:23.819Z,1251.93
2022-09-27T13:13:56.378Z,1253.30
2022-09-27T13:16:25.487Z,1261.22
2022-09-27T13:18:56.151Z,1255.40
2022-09-27T13:21:47.367Z,1255.88
2022-09-27T13:24:40.183Z,1253.53
2022-09-27T13:27:34.271Z,1261.68
2022-09-27T13:30:07.796Z,1257.27
2022-09-27T13:32:36.963Z,1251.75
2022-09-27T13:35:13.356Z,1256.30
2022-09-27T13:37:52.955Z,1251.68
2022-09-27T13:40:33.373Z,1253.43
2022-09-27T13:43:14.033Z,1253.85
2022-09-27T13:46:20.966Z,1246.13
2022-09-27T13:49:01.569Z,1248.60
2022-09-27T13:51:58.762Z,1253.20
2022-09-27T13:54:38.969Z,1252.72
2022-09-27T13:57:27.563Z,1254.40
2022-09-27T14:00:00.285Z,1250.30
2022-09-27T14:03:16.537Z,1251.28
2022-09-27T14:05:54.664Z,1244.22
2022-09-27T14:08:52.693Z,1249.60
2022-09-27T14:11:28.989Z,1249.75
2022-09-27T14:13:56.606Z,1255.30
2022-09-27T14:16:31.750Z,1250.65
2022-09-27T14:18:59.935Z,1248.72
2022-09-27T14:21:37.198Z,1254.22
2022-09-27T14:24:23.300Z,1248.80
2022-09-27T14:27:11.154Z,1242.37
2022-09-27T14:29:49.483Z,1253.40
2022-09-27T14:32:26.691Z,1249.50
2022-09-27T14:35:39.632Z,1244.97
2022-09-27T14:38:33.007Z,1245.32
2022-09-27T14:40:59.841Z,1246.43
2022-09-27T14:43:27.943Z,1248.03
2022-09-27T14:45:59.695Z,1248.10
2022-09-27T14:48:32.386Z,1246.45
2022-09-27T14:51:14.677Z,1256.10
2022-09-27T14:53:47.047Z,1255.75
2022-09-27T14:56:30.265Z,1253.27
2022-09-27T14:59:32.192Z,1250.95
2022-09-27T15:02:01.777Z,1253.63
2022-09-27T15:04:31.958Z,1250.72
2022-09-27T15:07:01.452Z,1254.28
2022-09-27T15:09:32.883Z,1250.45
2022-09-27T15:12:00.914Z,1252.40
2022-09-27T15:14:29.652Z,1249.07
2022-09-27T15:17:01.689Z,1257.40
2022-09-27T15:19:29.792Z,1253.25
2022-09-27T15:22:32.844Z,1255.22
2022-09-27T15:25:19.367Z,1256.03
2022-09-27T15:27:51.072Z,1258.68
2022-09-27T15:30:20.626Z,1255.35
2022-09-27T15:32:53.771Z,1262.47
2022-09-27T15:35:24.642Z,1254.93
2022-09-27T15:37:53.481Z,1257.97
2022-09-27T15:40:21.118Z,1258.22
2022-09-27T15:43:00.085Z,1260.43
2022-09-27T15:45:31.588Z,1254.05
2022-09-27T15:48:13.189Z,1254.85
2022-09-27T15:50:41.579Z,1254.18
2022-09-27T15:53:10.031Z,1257.82
2022-09-27T15:55:43.574Z,1260.80
2022-09-27T15:58:19.077Z,1256.00
2022-09-27T16:01:02.730Z,1254.40
2022-09-27T16:03:30.285Z,1254.32
2022-09-27T16:05:57.977Z,1255.45
2022-09-27T16:08:25.878Z,1256.05
2022-09-27T16:10:55.255Z,1250.00
2022-09-27T16:13:30.351Z,1252.68
2022-09-27T16:16:00.139Z,1249.07
2022-09-27T16:18:30.791Z,1254.13
2022-09-27T16:21:01.440Z,1250.47
2022-09-27T16:23:28.948Z,1247.10
2022-09-27T16:25:58.227Z,1247.05
2022-09-27T16:28:26.562Z,1250.28
2022-09-27T16:30:53.795Z,1246.93
2022-09-27T16:33:22.263Z,1248.40
2022-09-27T16:35:52.920Z,1252.25
2022-09-27T16:38:20.201Z,1248.93
2022-09-27T16:40:50.614Z,1249.03
2022-09-27T16:43:18.923Z,1249.03
2022-09-27T16:45:46.629Z,1247.93
2022-09-27T16:48:13.891Z,1247.68
2022-09-27T16:51:00.614Z,1251.00
2022-09-27T16:53:28.450Z,1251.83
2022-09-27T16:55:59.702Z,1249.95
2022-09-27T16:58:29.283Z,1246.38
2022-09-27T17:00:59.962Z,1240.22
2022-09-27T17:03:28.603Z,1239.85
2022-09-27T17:06:01.448Z,1246.22
2022-09-27T17:08:28.735Z,1244.38
2022-09-27T17:10:57.072Z,1237.63
2022-09-27T17:13:25.564Z,1237.32
2022-09-27T17:15:53.547Z,1244.75
2022-09-27T17:18:21.867Z,1243.43
2022-09-27T17:20:50.236Z,1243.10
2022-09-27T17:23:17.410Z,1241.10
2022-09-27T17:25:44.795Z,1246.07
2022-09-27T17:28:11.989Z,1239.97
2022-09-27T17:30:43.276Z,1239.70
2022-09-27T17:33:11.612Z,1240.88
2022-09-27T17:35:38.697Z,1245.03
2022-09-27T17:38:07.319Z,1252.75
2022-09-27T17:40:35.565Z,1246.50
2022-09-27T17:43:06.625Z,1250.97
2022-09-27T17:45:34.943Z,1248.70
2022-09-27T17:48:21.830Z,1250.07
2022-09-27T17:50:50.817Z,1248.47
2022-09-27T17:53:19.313Z,1248.25
2022-09-27T17:55:47.607Z,1253.33
2022-09-27T17:58:15.958Z,1251.83
2022-09-27T18:00:46.655Z,1252.07
2022-09-27T18:03:15.307Z,1251.22
2022-09-27T18:05:43.781Z,1249.57
2022-09-27T18:08:11.052Z,1245.28
2022-09-27T18:10:38.618Z,1249.53
2022-09-27T18:13:07.324Z,1248.28
2022-09-27T18:15:37.170Z,1245.20
2022-09-27T18:18:05.537Z,1246.07
2022-09-27T18:20:41.880Z,1240.70
2022-09-27T18:23:11.195Z,1249.50
2022-09-27T18:25:40.329Z,1238.43
2022-09-27T18:28:09.958Z,1247.55
2022-09-27T18:30:37.241Z,1242.85
2022-09-27T18:33:05.381Z,1248.80
2022-09-27T18:35:35.287Z,1242.45
2022-09-27T18:38:03.577Z,1238.95
2022-09-27T18:40:51.935Z,1244.60
2022-09-27T18:43:19.199Z,1242.50
2022-09-27T18:45:47.542Z,1242.65
2022-09-27T18:48:15.721Z,1246.40
2022-09-27T18:50:45.039Z,1247.60
2022-09-27T18:53:12.515Z,1242.57
2022-09-27T18:55:41.503Z,1247.22
2022-09-27T18:58:14.153Z,1247.65
2022-09-27T19:00:44.610Z,1245.68
2022-09-27T19:03:17.772Z,1251.00
2022-09-27T19:05:54.936Z,1245.82
2022-09-27T19:08:23.425Z,1248.00
2022-09-27T19:10:51.951Z,1249.60
2022-09-27T19:13:23.090Z,1245.15
2022-09-27T19:15:56.331Z,1247.47
2022-09-27T19:18:24.438Z,1251.45
2022-09-27T19:20:52.158Z,1247.20
2022-09-27T19:23:23.422Z,1251.57
2022-09-27T19:25:52.054Z,1245.55
2022-09-27T19:28:19.481Z,1247.32
2022-09-27T19:30:46.715Z,1250.47
2022-09-27T19:33:15.057Z,1247.15
2022-09-27T19:35:43.274Z,1249.90
2022-09-27T19:38:10.550Z,1246.13
2022-09-27T19:40:38.205Z,1246.95
2022-09-27T19:43:05.560Z,1247.65
2022-09-27T19:45:36.721Z,1241.68
2022-09-27T19:48:04.941Z,1250.28
2022-09-27T19:50:33.222Z,1248.50
2022-09-27T19:53:03.511Z,1245.75
2022-09-27T19:55:32.864Z,1247.70
2022-09-27T19:58:01.071Z,1248.32
2022-09-27T20:00:29.428Z,1244.35
2022-09-27T20:03:02.801Z,1243.68
2022-09-27T20:05:30.113Z,1242.25
2022-09-27T20:07:58.437Z,1244.07
2022-09-27T20:10:25.905Z,1244.53
2022-09-27T20:12:54.708Z,1245.32
2022-09-27T20:15:22.090Z,1244.47
2022-09-27T20:17:52.936Z,1243.20
2022-09-27T20:20:20.625Z,1248.60
2022-09-27T20:22:48.869Z,1242.00
2022-09-27T20:25:17.079Z,1245.47
2022-09-27T20:27:45.354Z,1246.40
2022-09-27T20:30:15.271Z,1246.47
2022-09-27T20:33:03.435Z,1247.63
2022-09-27T20:35:30.765Z,1253.82
2022-09-27T20:37:58.961Z,1252.10
2022-09-27T20:40:26.314Z,1251.30
2022-09-27T20:42:54.584Z,1252.18
2022-09-27T20:45:22.054Z,1255.45
2022-09-27T20:47:49.308Z,1250.13
2022-09-27T20:50:18.591Z,1247.85
2022-09-27T20:52:47.745Z,1248.30
2022-09-27T20:55:16.157Z,1245.82
2022-09-27T20:57:56.852Z,1244.82
2022-09-27T21:00:26.282Z,1248.85
2022-09-27T21:02:55.743Z,1244.90
2022-09-27T21:05:23.216Z,1250.03
2022-09-27T21:07:54.289Z,1245.23
2022-09-27T21:10:24.590Z,1249.07
2022-09-27T21:12:52.965Z,1245.28
2022-09-27T21:15:21.347Z,1244.90
2022-09-27T21:17:50.288Z,1250.45
2022-09-27T21:20:18.774Z,1243.75
2022-09-27T21:22:47.057Z,1245.53
2022-09-27T21:25:14.540Z,1249.90
2022-09-27T21:27:41.897Z,1241.38
2022-09-27T21:30:09.385Z,1242.50
2022-09-27T21:32:38.299Z,1244.55
2022-09-27T21:35:05.854Z,1244.53
2022-09-27T21:37:34.147Z,1248.53
2022-09-27T21:40:05.801Z,1247.05
2022-09-27T21:42:33.169Z,1249.38
2022-09-27T21:45:01.666Z,1242.00
2022-09-27T21:47:30.243Z,1246.18
2022-09-27T21:49:57.634Z,1244.55
2022-09-27T21:52:27.811Z,1242.82
2022-09-27T21:54:55.255Z,1246.53
2022-09-27T21:57:25.639Z,1247.47
2022-09-27T21:59:53.977Z,1240.70
2022-09-27T22:02:23.476Z,1244.60
2022-09-27T22:04:51.219Z,1245.05
2022-09-27T22:07:20.574Z,1245.28
2022-09-27T22:09:49.742Z,1243.22
2022-09-27T22:12:17.038Z,1244.22
2022-09-27T22:14:48.279Z,1246.07
2022-09-27T22:17:15.544Z,1243.82
2022-09-27T22:19:45.857Z,1244.97
2022-09-27T22:22:13.259Z,1248.20
2022-09-27T22:24:40.627Z,1248.47
2022-09-27T22:27:09.014Z,1249.00
2022-09-27T22:29:37.366Z,1242.60
2022-09-27T22:32:07.070Z,1242.45
2022-09-27T22:34:36.356Z,1245.90
2022-09-27T22:37:03.737Z,1245.78
2022-09-27T22:39:34.020Z,1243.05
2022-09-27T22:42:02.327Z,1241.25
2022-09-27T22:44:33.444Z,1243.07
2022-09-27T22:47:00.906Z,1242.78
2022-09-27T22:49:30.458Z,1242.88
2022-09-27T22:51:58.830Z,1243.95
2022-09-27T22:54:26.133Z,1243.82
2022-09-27T22:56:57.285Z,1243.03
2022-09-27T22:59:25.898Z,1245.68
2022-09-27T23:01:53.950Z,1243.40
2022-09-27T23:04:23.538Z,1243.70
2022-09-27T23:06:51.837Z,1242.55
2022-09-27T23:09:19.194Z,1242.03
2022-09-27T23:11:47.552Z,1243.85
2022-09-27T23:14:15.799Z,1244.57
2022-09-27T23:16:43.038Z,1243.28
2022-09-27T23:19:11.694Z,1242.47
2022-09-27T23:21:39.960Z,1245.53
2022-09-27T23:24:07.335Z,1244.82
2022-09-27T23:26:35.688Z,1245.72
2022-09-27T23:29:06.068Z,1241.47
2022-09-27T23:31:34.482Z,1246.07
2022-09-27T23:34:04.709Z,1240.13
2022-09-27T23:36:33.286Z,1240.22
2022-09-27T23:39:01.688Z,1244.70
2022-09-27T23:41:30.176Z,1244.60
2022-09-27T23:43:58.483Z,1242.82
2022-09-27T23:46:25.896Z,1243.00
2022-09-27T23:48:59.092Z,1242.57
2022-09-27T23:51:27.501Z,1241.72
2022-09-27T23:53:58.079Z,1246.57
2022-09-27T23:56:25.751Z,1242.72
2022-09-27T23:58:54.242Z,1242.60
